Shelby County Airport
KEET : now visible

Airfield :











YOU CAN JOIN US ON...

 
LOGIN :

Register | Disclaimer

   EN    FR    IT 

 









Legend :    VFR   Marginal VFR   IFR   Intensive IFR   Very Intensive IFR
Visi :
Ceiling :
>= 8 km
>= 3000ft
5 to 8 km
1000 to 3000 ft
1500m to 5 km
500 to 1000 ft
800 to 1500m
200 to 500 ft
< 800m
< 200 ft
Symbols :   Thunderstorms  Fog  Heavy snow  Heavy precipitations  Wind > 20 kt






- Airport Elevation : 586 ft


KEET - Shelby County

CURRENT METAR :
  • 170053Z AUTO 20010G16KT 10SM CLR 28/22 A3003 RMK AO2 SLP160 T02830217

EXPIRED METARs :
  • 162353Z AUTO 17006KT 10SM CLR 33/20 A2999 RMK AO2 SLP148 T03330200 10372 20333 53002
  • 162253Z AUTO 15009KT 10SM CLR 34/19 A2999 RMK AO2 LTG DSNT W SLP146 T03440189
  • 162153Z AUTO 16008G17KT 10SM CLR 36/18 A2999 RMK AO2 SLP145 T03560183
  • 162053Z AUTO 16011G15KT 10SM FEW070 SCT100 36/19 A2999 RMK AO2 SLP146 T03560189 55013

TAF KEET
Valid from the 17 at 00:00 until the 18 at 00:00 UTC


162335Z 1700/1724 15008KT P6SM SCT070 SCT150
FM170200 00000KT P6SM BKN250
FM171600 14008KT P6SM SCT040 SCT100
PROB30 1718/1724 4SM TSRA BR BKN040CB
KZTL FIR / North America



MET'MAP, your aeronautical weather chart ! - Copyright ORBIFLY December 2007 - Disclaimer

ORBIFLY MET'MAP TEAM :

Programming & Development : Alexandra Zaïnal
Original concept : Baudouin d'Aumeries
Technical & hardware support : Manuel Goepfert
Assistance : Marc-Olivier Méhu




SOURCES & CREDITS :

   NOAA       Earth
Advisory